Hlavní strana
METAR-TAF:

METAR-TAF

Letiště :

Volgograd, Rusko

zeměpisná šířka: 48-47N, zeměpisná délka: 044-22E, výška: 145 m

Aktuální stav počasí

Zpráva byla vytvořena před 27 minutami, v 22:00 UTC
Jižní vítr 8 kt
Teplota -1°C
Vlhkost vzduchu 100%
Tlak 1020 hPa
Viditelnost 10 km a více
Žádná oblačnost pod 1500 m, nevyskytují se cumulonimby.

METAR: URWW 182200Z 18004MPS CAVOK M01/M01 Q1020 R24/120060 TEMPO 0300 FZFG OVC002

Čas: 02:27 (22:27 UTC)

Předpověď počasí

Zpráva byla vytvořena před 2 hodinami a 29 minutami, v 19:58 UTC
Předpověď platná od 18 v 21 UTC do 19 v 06 UTC
Jihojihovýchodní vítr 10 kt s nárazy do 21 kt
Viditelnost: 0300 m
Zataženo ve výšce 200 ft
mrznoucí mlha
Dočasný
od 18 v 21 UTC do 18 v 24 UTC
Jižní vítr 6 kt s nárazy do 19 kt
Viditelnost: 6000 m
Oblačno až skoro zataženo ve výšce 1100 ft

TAF: URWW 181958Z 1821/1906 16005G11MPS 0300 FZFG OVC002 TEMPO 1821/1824 18003G10MPS 6000 NSW BKN011

Stav a předpovědi počasí z více než 4 000 letišť (zprávy METAR a TAF).

Červené a žluté tečky na mapě představují dostupné meteorologické stanice.

Když kurzor umístíte na tečku, zobrazí se název stanice.

Pak kliknutím zobrazíte stav a předpověď počasí.

Chcete-li změnit mapu, kliknutím na zelené tlačítko se znaménkem +mapu přiblížíte, kliknutím na zelené tlačítko se znaménkem – mapu oddálíte a kliknutím na zelené šipky přejdete na sousední mapy.


METAR-TAF: